createdAt,value
2023-05-17T00:01:03.719Z,50.44
2023-05-17T00:05:07.640Z,49.89
2023-05-17T00:09:08.002Z,49.40
2023-05-17T00:13:08.260Z,49.70
2023-05-17T00:17:08.999Z,49.82
2023-05-17T00:21:12.479Z,50.48
2023-05-17T00:25:13.253Z,50.51
2023-05-17T00:29:13.562Z,50.42
2023-05-17T00:33:15.554Z,50.18
2023-05-17T00:37:18.417Z,50.44
2023-05-17T00:41:18.882Z,50.54
2023-05-17T00:45:19.699Z,50.09
2023-05-17T00:49:20.228Z,49.95
2023-05-17T00:53:23.425Z,49.47
2023-05-17T00:57:23.919Z,49.32
2023-05-17T01:01:25.325Z,48.54
2023-05-17T01:05:29.136Z,48.14
2023-05-17T01:09:32.870Z,48.46
2023-05-17T01:13:43.515Z,48.79
2023-05-17T01:17:56.172Z,48.21
2023-05-17T01:22:18.188Z,48.26
2023-05-17T01:26:23.994Z,48.05
2023-05-17T01:30:31.572Z,47.81
2023-05-17T01:34:33.089Z,47.98
2023-05-17T01:38:33.348Z,48.79
2023-05-17T01:42:36.212Z,48.99
2023-05-17T01:46:44.449Z,48.66
2023-05-17T01:50:47.692Z,48.31
2023-05-17T01:54:59.430Z,48.44
2023-05-17T01:59:02.267Z,48.80
2023-05-17T02:03:06.458Z,49.28
2023-05-17T02:07:07.207Z,49.59
2023-05-17T02:11:07.787Z,49.99
2023-05-17T02:15:12.227Z,51.09
2023-05-17T02:19:15.524Z,51.86
2023-05-17T02:23:15.729Z,52.01
2023-05-17T02:27:16.264Z,52.01
2023-05-17T02:31:16.636Z,52.29
2023-05-17T02:35:19.574Z,52.72
2023-05-17T02:39:19.866Z,52.68
2023-05-17T02:43:20.207Z,53.48
2023-05-17T02:47:21.372Z,52.86
2023-05-17T02:51:24.720Z,53.20
2023-05-17T02:55:25.013Z,53.42
2023-05-17T02:59:25.400Z,53.74
2023-05-17T03:03:26.185Z,54.24
2023-05-17T03:07:29.068Z,53.97
2023-05-17T03:11:29.635Z,54.16
2023-05-17T03:15:32.247Z,54.04
2023-05-17T03:19:32.655Z,54.05
2023-05-17T03:23:36.744Z,54.23
2023-05-17T03:27:37.085Z,54.39
2023-05-17T03:31:38.919Z,53.55
2023-05-17T03:35:39.174Z,53.51
2023-05-17T03:39:42.034Z,53.53
2023-05-17T03:43:42.688Z,53.85
2023-05-17T03:47:45.562Z,53.96
2023-05-17T03:51:45.995Z,54.14
2023-05-17T03:55:49.042Z,54.08
2023-05-17T03:59:51.014Z,54.33
2023-05-17T04:03:53.172Z,54.61
2023-05-17T04:07:54.968Z,55.18
2023-05-17T04:11:58.677Z,54.99
2023-05-17T04:15:59.789Z,55.02
2023-05-17T04:20:00.147Z,54.71
2023-05-17T04:24:00.987Z,54.60
2023-05-17T04:28:05.571Z,54.35
2023-05-17T04:32:06.009Z,54.27
2023-05-17T04:36:07.197Z,53.95
2023-05-17T04:40:11.355Z,53.99
2023-05-17T04:44:15.037Z,53.81
2023-05-17T04:48:17.020Z,53.08
2023-05-17T04:52:17.340Z,52.54
2023-05-17T04:56:19.381Z,52.06
2023-05-17T05:00:24.183Z,51.60
2023-05-17T05:04:33.183Z,51.36
2023-05-17T05:08:37.862Z,50.98
2023-05-17T05:12:41.580Z,51.09
2023-05-17T05:16:44.634Z,50.59
2023-05-17T05:20:44.960Z,49.90
2023-05-17T05:24:45.449Z,49.25
2023-05-17T05:28:46.892Z,49.17
2023-05-17T05:32:50.298Z,49.20
2023-05-17T05:36:50.701Z,48.97
2023-05-17T05:40:54.110Z,48.70
2023-05-17T05:44:54.554Z,48.26
2023-05-17T05:48:58.974Z,47.74
2023-05-17T05:53:14.547Z,47.04
2023-05-17T05:57:21.125Z,47.05
2023-05-17T06:01:22.530Z,47.11
2023-05-17T06:05:26.215Z,46.72
2023-05-17T06:09:26.600Z,46.15
2023-05-17T06:13:26.830Z,45.88
2023-05-17T06:17:27.581Z,45.27
2023-05-17T06:21:30.453Z,45.00
2023-05-17T06:25:30.811Z,44.19
2023-05-17T06:29:31.139Z,44.00
2023-05-17T06:33:33.970Z,43.22
2023-05-17T06:37:37.132Z,42.30
2023-05-17T06:41:37.576Z,43.35
2023-05-17T06:45:37.819Z,43.11
2023-05-17T06:49:38.094Z,41.84
2023-05-17T06:53:41.148Z,41.29
2023-05-17T06:57:41.492Z,40.92
2023-05-17T07:01:42.555Z,40.28
2023-05-17T07:05:42.829Z,41.19
2023-05-17T07:09:45.903Z,40.68
2023-05-17T07:13:46.904Z,40.58
2023-05-17T07:17:47.372Z,39.51
2023-05-17T07:21:48.355Z,38.88
2023-05-17T07:25:51.380Z,37.96
2023-05-17T07:29:51.629Z,37.50
2023-05-17T07:33:51.958Z,37.68
2023-05-17T07:37:53.627Z,36.50
2023-05-17T07:41:56.579Z,36.32
2023-05-17T07:45:59.897Z,35.28
2023-05-17T07:50:00.646Z,36.05
2023-05-17T07:54:03.382Z,35.61
2023-05-17T07:58:06.201Z,34.31
2023-05-17T08:02:06.592Z,34.76
2023-05-17T08:06:08.176Z,35.32
2023-05-17T08:10:10.444Z,34.05
2023-05-17T08:14:16.179Z,33.79
2023-05-17T08:18:16.526Z,33.93
2023-05-17T08:22:16.969Z,35.28
2023-05-17T08:26:19.100Z,34.29
2023-05-17T08:34:28.336Z,34.38
2023-05-17T08:38:28.755Z,34.37
2023-05-17T08:42:30.035Z,35.13
2023-05-17T08:46:35.437Z,35.21
2023-05-17T08:50:38.569Z,35.50
2023-05-17T08:54:39.157Z,35.33
2023-05-17T08:58:55.684Z,35.55
2023-05-17T09:03:00.988Z,35.00
2023-05-17T09:07:01.526Z,34.58
2023-05-17T09:11:02.277Z,33.70
2023-05-17T09:15:17.179Z,32.68
2023-05-17T09:19:21.128Z,32.53
2023-05-17T09:23:24.333Z,32.29
2023-05-17T09:27:24.659Z,33.18
2023-05-17T09:31:24.918Z,34.04
2023-05-17T09:35:34.466Z,34.41
2023-05-17T09:39:36.399Z,33.77
2023-05-17T09:43:38.042Z,33.35
2023-05-17T09:47:38.616Z,33.18
2023-05-17T09:51:44.195Z,32.97
2023-05-17T09:55:44.516Z,33.62
2023-05-17T09:59:45.571Z,34.30
2023-05-17T10:03:46.803Z,34.18
2023-05-17T10:07:52.881Z,33.93
2023-05-17T10:11:56.751Z,34.61
2023-05-17T10:15:58.163Z,34.43
2023-05-17T10:19:59.803Z,35.28
2023-05-17T10:24:06.399Z,34.32
2023-05-17T10:28:09.225Z,33.10
2023-05-17T10:32:11.137Z,33.14
2023-05-17T10:36:13.816Z,32.13
2023-05-17T10:40:20.414Z,32.37
2023-05-17T10:44:22.365Z,32.39
2023-05-17T10:48:22.773Z,31.88
2023-05-17T10:52:26.290Z,31.34
2023-05-17T10:56:29.176Z,31.48
2023-05-17T11:00:33.387Z,31.13
2023-05-17T11:04:39.048Z,32.08
2023-05-17T11:08:40.982Z,31.96
2023-05-17T11:12:47.073Z,33.45
2023-05-17T11:16:47.369Z,33.17
2023-05-17T11:20:51.065Z,32.78
2023-05-17T11:24:56.077Z,32.19
2023-05-17T11:29:10.592Z,33.01
2023-05-17T11:33:24.793Z,31.50
2023-05-17T11:37:32.999Z,31.80
2023-05-17T11:41:33.570Z,32.01
2023-05-17T11:45:45.403Z,32.39
2023-05-17T11:49:45.659Z,31.25
2023-05-17T11:53:47.495Z,32.62
2023-05-17T11:57:48.084Z,32.94
2023-05-17T12:01:53.697Z,34.06
2023-05-17T12:06:04.908Z,34.34
2023-05-17T12:10:07.210Z,34.93
2023-05-17T12:14:09.165Z,34.77
2023-05-17T12:18:12.606Z,34.75
2023-05-17T12:22:15.390Z,34.28
2023-05-17T12:26:17.589Z,33.16
2023-05-17T12:30:19.645Z,33.38
2023-05-17T12:34:23.446Z,32.60
2023-05-17T12:38:24.055Z,32.54
2023-05-17T12:42:25.564Z,31.85
2023-05-17T12:46:27.309Z,31.97
2023-05-17T12:50:35.880Z,32.71
2023-05-17T12:54:37.027Z,32.76
2023-05-17T12:58:37.665Z,32.93
2023-05-17T13:02:38.079Z,32.88
2023-05-17T13:07:00.909Z,32.61
2023-05-17T13:11:17.520Z,33.86
2023-05-17T13:15:18.324Z,34.14
2023-05-17T13:19:18.763Z,34.34
2023-05-17T13:23:22.077Z,34.80
2023-05-17T13:27:22.729Z,34.76
2023-05-17T13:31:22.923Z,33.82
2023-05-17T13:35:23.357Z,33.16
2023-05-17T13:39:26.865Z,32.16
2023-05-17T13:43:27.243Z,31.82
2023-05-17T13:47:30.140Z,30.47
2023-05-17T13:51:30.531Z,29.16
2023-05-17T13:55:33.561Z,29.17
2023-05-17T13:59:34.519Z,29.10
2023-05-17T14:03:35.904Z,29.39
2023-05-17T14:07:36.578Z,29.33
2023-05-17T14:11:39.665Z,28.29
2023-05-17T14:15:40.200Z,29.13
2023-05-17T14:19:40.671Z,26.94
2023-05-17T14:23:41.240Z,26.14
2023-05-17T14:27:44.153Z,26.80
2023-05-17T14:31:44.647Z,27.44
2023-05-17T14:35:45.017Z,26.92
2023-05-17T14:39:55.249Z,25.22
2023-05-17T14:44:08.590Z,24.46
2023-05-17T14:48:10.226Z,22.86
2023-05-17T14:52:11.363Z,22.81
2023-05-17T14:56:11.576Z,22.84
2023-05-17T15:00:16.271Z,24.45
2023-05-17T15:04:16.927Z,24.68
2023-05-17T15:08:17.266Z,25.94
2023-05-17T15:12:17.478Z,26.17
2023-05-17T15:16:21.334Z,26.69
2023-05-17T15:20:23.666Z,27.34
2023-05-17T15:24:24.028Z,25.56
2023-05-17T15:28:24.631Z,25.16
2023-05-17T15:32:27.823Z,25.94
2023-05-17T15:36:28.432Z,26.88
2023-05-17T15:40:28.833Z,26.86
2023-05-17T15:44:29.096Z,24.68
2023-05-17T15:48:32.084Z,23.77
2023-05-17T15:52:33.497Z,22.59
2023-05-17T15:56:33.842Z,22.48
2023-05-17T16:00:34.301Z,23.20
2023-05-17T16:04:37.846Z,24.60
2023-05-17T16:08:41.738Z,23.90
2023-05-17T16:12:42.180Z,23.81
2023-05-17T16:16:45.008Z,25.30
2023-05-17T16:20:48.324Z,24.84
2023-05-17T16:24:48.773Z,24.96
2023-05-17T16:28:48.927Z,25.89
2023-05-17T16:32:50.157Z,25.61
2023-05-17T16:36:53.438Z,25.75
2023-05-17T16:40:53.786Z,26.42
2023-05-17T16:44:54.198Z,26.61
2023-05-17T16:48:55.658Z,25.96
2023-05-17T16:52:58.794Z,26.12
2023-05-17T16:56:59.225Z,26.39
2023-05-17T17:00:59.418Z,27.16
2023-05-17T17:05:00.318Z,26.59
2023-05-17T17:09:07.898Z,25.62
2023-05-17T17:13:08.539Z,26.46
2023-05-17T17:17:09.123Z,26.77
2023-05-17T17:21:09.668Z,27.48
2023-05-17T17:25:13.548Z,28.87
2023-05-17T17:29:13.778Z,30.06
2023-05-17T17:33:14.151Z,29.96
2023-05-17T17:37:14.531Z,30.59
2023-05-17T17:41:17.362Z,31.17
2023-05-17T17:45:17.856Z,32.11
2023-05-17T17:49:18.247Z,32.63
2023-05-17T17:53:19.418Z,33.08
2023-05-17T17:57:23.142Z,33.46
2023-05-17T18:01:23.566Z,33.90
2023-05-17T18:05:25.559Z,34.20
2023-05-17T18:09:26.391Z,34.57
2023-05-17T18:13:29.292Z,34.46
2023-05-17T18:17:29.694Z,34.96
2023-05-17T18:21:31.121Z,35.31
2023-05-17T18:25:31.563Z,35.94
2023-05-17T18:29:34.432Z,36.70
2023-05-17T18:33:35.352Z,36.54
2023-05-17T18:37:36.477Z,38.46
2023-05-17T18:41:36.744Z,38.81
2023-05-17T18:45:39.734Z,39.44
2023-05-17T18:49:42.105Z,39.64
2023-05-17T18:53:42.260Z,40.51
2023-05-17T18:57:42.594Z,41.03
2023-05-17T19:01:45.840Z,41.09
2023-05-17T19:05:46.251Z,41.53
2023-05-17T19:09:46.602Z,41.00
2023-05-17T19:13:47.151Z,41.74
2023-05-17T19:17:50.198Z,43.29
2023-05-17T19:21:50.454Z,43.11
2023-05-17T19:25:51.141Z,44.10
2023-05-17T19:29:51.997Z,44.39
2023-05-17T19:33:54.755Z,44.43
2023-05-17T19:37:56.843Z,44.93
2023-05-17T19:41:57.205Z,45.74
2023-05-17T19:45:57.564Z,45.95
2023-05-17T19:50:00.427Z,46.06
2023-05-17T19:54:00.737Z,46.79
2023-05-17T19:58:01.634Z,46.32
2023-05-17T20:02:02.013Z,46.56
2023-05-17T20:06:05.574Z,47.44
2023-05-17T20:10:06.911Z,47.06
2023-05-17T20:14:07.663Z,47.14
2023-05-17T20:18:13.106Z,47.42
2023-05-17T20:22:16.791Z,47.46
2023-05-17T20:26:25.923Z,47.61
2023-05-17T20:30:26.336Z,47.51
2023-05-17T20:34:28.512Z,47.92
2023-05-17T20:38:31.738Z,48.08
2023-05-17T20:42:32.856Z,47.89
2023-05-17T20:46:33.722Z,48.30
2023-05-17T20:50:34.131Z,48.55
2023-05-17T20:54:37.302Z,48.55
2023-05-17T20:58:37.892Z,46.23
2023-05-17T21:02:38.639Z,47.03
2023-05-17T21:06:39.475Z,47.33
2023-05-17T21:10:46.686Z,47.43
2023-05-17T21:14:54.224Z,46.84
2023-05-17T21:19:01.347Z,46.76
2023-05-17T21:23:01.759Z,46.47
2023-05-17T21:27:04.685Z,47.09
2023-05-17T21:31:06.531Z,47.71
2023-05-17T21:35:08.345Z,47.25
2023-05-17T21:39:08.788Z,47.36
2023-05-17T21:43:12.712Z,48.02
2023-05-17T21:47:13.207Z,47.81
2023-05-17T21:51:15.607Z,46.99
2023-05-17T21:55:15.903Z,47.69
2023-05-17T21:59:19.260Z,47.16
2023-05-17T22:03:19.679Z,47.05
2023-05-17T22:07:20.372Z,46.71
2023-05-17T22:11:23.021Z,47.53
2023-05-17T22:15:26.441Z,47.55
2023-05-17T22:19:26.773Z,48.01
2023-05-17T22:23:27.039Z,48.32
2023-05-17T22:27:27.275Z,48.62
2023-05-17T22:31:30.877Z,48.29
2023-05-17T22:35:31.792Z,48.63
2023-05-17T22:39:32.036Z,49.14
2023-05-17T22:43:32.680Z,49.34
2023-05-17T22:47:35.887Z,49.36
2023-05-17T22:51:36.424Z,49.44
2023-05-17T22:55:36.679Z,49.59
2023-05-17T22:59:36.943Z,50.12
2023-05-17T23:03:40.943Z,50.07
2023-05-17T23:07:43.525Z,50.30
2023-05-17T23:11:43.787Z,50.46
2023-05-17T23:15:47.005Z,50.36
2023-05-17T23:19:50.021Z,49.67
2023-05-17T23:23:53.636Z,49.68
2023-05-17T23:27:54.330Z,50.16
2023-05-17T23:31:54.596Z,50.20
2023-05-17T23:35:57.417Z,49.96
2023-05-17T23:39:57.620Z,49.82
2023-05-17T23:43:57.830Z,49.46
2023-05-17T23:48:00.637Z,49.10
2023-05-17T23:52:03.781Z,48.18
2023-05-17T23:56:05.115Z,47.93
